Time;durP1;ratioP1;P1;durP2;ratioP2;P2;SDS_P1;SDS_P2;PMS_P1;PMS_P2;Temp;Humidity;BMP_temperature;BMP_pressure;BME280_temperature;BME280_humidity;BME280_pressure;Samples;Min_cycle;Max_cycle;Signal;HPM_P1;HPM_P2
2022/10/27 00:01:34;;;;;;;3.93;3.63;;;14.40;99.90;;;;;;5109418;28;20241;-69
2022/10/27 00:04:01;;;;;;;3.87;3.50;;;14.30;99.90;;;;;;5109741;28;20197;-69
2022/10/27 00:06:29;;;;;;;4.73;3.90;;;14.30;99.90;;;;;;5109502;28;20246;-68
2022/10/27 00:08:56;;;;;;;4.03;3.67;;;14.20;99.90;;;;;;5112026;27;20210;-69
2022/10/27 00:11:22;;;;;;;3.80;3.50;;;14.00;99.90;;;;;;5129670;27;20201;-68
2022/10/27 00:13:49;;;;;;;5.27;3.30;;;14.00;99.90;;;;;;5129655;27;20205;-68
2022/10/27 00:16:16;;;;;;;6.30;3.70;;;14.00;99.90;;;;;;5130171;27;20228;-69
2022/10/27 00:18:44;;;;;;;5.77;3.80;;;13.90;99.90;;;;;;5129927;27;20213;-68
2022/10/27 00:21:13;;;;;;;4.30;3.30;;;14.00;99.90;;;;;;5129278;27;20213;-69
2022/10/27 00:23:41;;;;;;;11.47;4.00;;;14.00;99.90;;;;;;5129679;27;20201;-69
2022/10/27 00:26:13;;;;;;;6.07;3.77;;;14.00;99.90;;;;;;5124118;27;20226;-69
2022/10/27 00:28:40;;;;;;;4.23;3.50;;;14.00;99.90;;;;;;5129469;27;20272;-68
2022/10/27 00:31:12;;;;;;;7.20;3.73;;;14.00;99.90;;;;;;5129295;27;20718;-68
2022/10/27 00:33:39;;;;;;;6.00;3.40;;;14.00;99.90;;;;;;5112509;27;20206;-69
2022/10/27 00:36:09;;;;;;;3.90;3.60;;;14.10;99.90;;;;;;5109107;28;20217;-69
2022/10/27 00:38:36;;;;;;;4.93;3.20;;;14.10;99.90;;;;;;5108738;28;20202;-68
2022/10/27 00:41:05;;;;;;;4.80;3.47;;;14.10;99.90;;;;;;5118272;27;20209;-68
2022/10/27 00:43:34;;;;;;;3.53;3.20;;;14.10;99.90;;;;;;5129510;27;20209;-68
2022/10/27 00:46:04;;;;;;;4.20;3.50;;;14.20;99.90;;;;;;5129551;27;20225;-68
2022/10/27 00:48:32;;;;;;;6.07;3.47;;;14.20;99.90;;;;;;5129077;27;20197;-68
2022/10/27 00:51:02;;;;;;;4.30;3.23;;;14.20;99.90;;;;;;5129425;27;20201;-68
2022/10/27 00:53:30;;;;;;;4.27;3.83;;;14.20;99.90;;;;;;5109431;27;20202;-68
2022/10/27 00:55:57;;;;;;;3.60;3.30;;;14.20;99.90;;;;;;5108136;28;20661;-69
2022/10/27 00:58:25;;;;;;;4.17;3.77;;;14.30;99.90;;;;;;5108565;28;20642;-69
2022/10/27 01:00:52;;;;;;;5.80;3.47;;;14.30;99.90;;;;;;5108442;28;20221;-69
2022/10/27 01:03:22;;;;;;;3.67;3.30;;;14.30;99.90;;;;;;5108480;28;20234;-69
2022/10/27 01:05:50;;;;;;;3.70;3.37;;;14.30;99.90;;;;;;5128562;27;20232;-69
2022/10/27 01:08:17;;;;;;;5.70;3.57;;;14.30;99.90;;;;;;5128734;27;20208;-69
2022/10/27 01:10:44;;;;;;;3.53;3.23;;;14.30;99.90;;;;;;5128306;27;20201;-69
2022/10/27 01:13:10;;;;;;;5.60;3.53;;;14.20;99.90;;;;;;5128798;27;20217;-69
2022/10/27 01:15:49;;;;;;;3.50;3.20;;;14.20;99.90;;;;;;5110108;27;20621;-69
2022/10/27 01:18:23;;;;;;;5.67;3.37;;;14.20;99.90;;;;;;5108460;28;20194;-69
2022/10/27 01:21:38;;;;;;;4.27;3.70;;;14.30;99.90;;;;;;5115207;27;20217;-69
2022/10/27 01:24:35;;;;;;;3.80;3.50;;;14.20;99.90;;;;;;5128740;27;20363;-69
2022/10/27 01:27:05;;;;;;;3.93;3.63;;;14.10;99.90;;;;;;5114092;27;20233;-69
2022/10/27 01:29:50;;;;;;;4.53;3.83;;;13.90;99.90;;;;;;5115405;27;20205;-66
2022/10/27 01:32:26;;;;;;;7.53;3.60;;;13.90;99.90;;;;;;5123717;27;20195;-66
2022/10/27 01:35:00;;;;;;;7.63;4.10;;;13.90;99.90;;;;;;5107947;28;20198;-66
2022/10/27 01:37:35;;;;;;;4.70;3.87;;;13.90;99.90;;;;;;5128259;27;20341;-66
2022/10/27 01:40:06;;;;;;;4.20;3.90;;;14.00;99.90;;;;;;5128450;27;20189;-66
2022/10/27 01:42:38;;;;;;;5.60;4.10;;;13.90;99.90;;;;;;5128801;27;20204;-69
2022/10/27 01:45:08;;;;;;;6.97;4.30;;;14.00;99.90;;;;;;5128448;27;20652;-69
2022/10/27 01:47:37;;;;;;;7.53;4.00;;;13.90;99.90;;;;;;5128354;27;20236;-70
2022/10/27 01:50:05;;;;;;;4.80;3.87;;;13.90;99.90;;;;;;5128873;27;20575;-69
2022/10/27 01:52:44;;;;;;;4.70;4.07;;;13.80;99.90;;;;;;5127968;27;20706;-69
2022/10/27 01:55:18;;;;;;;7.40;4.30;;;13.70;99.90;;;;;;5128567;27;20189;-69
2022/10/27 01:58:08;;;;;;;6.33;4.13;;;13.70;99.90;;;;;;5108097;28;20205;-68
2022/10/27 02:00:45;;;;;;;6.03;3.73;;;13.80;99.90;;;;;;5108130;28;20704;-69
2022/10/27 02:03:17;;;;;;;10.63;4.20;;;13.80;99.90;;;;;;5107891;28;20724;-69
2022/10/27 02:05:47;;;;;;;5.43;3.80;;;13.80;99.90;;;;;;5107658;28;20732;-69
2022/10/27 02:08:20;;;;;;;6.30;3.97;;;13.80;99.90;;;;;;5107743;28;20253;-69
2022/10/27 02:10:55;;;;;;;5.17;3.80;;;13.80;99.90;;;;;;5118900;28;20197;-67
2022/10/27 02:13:22;;;;;;;4.63;3.80;;;13.80;99.90;;;;;;5128099;27;20678;-66
2022/10/27 02:15:52;;;;;;;5.17;4.17;;;13.90;99.90;;;;;;5127995;27;20201;-67
2022/10/27 02:18:26;;;;;;;4.73;4.33;;;13.80;99.90;;;;;;5128359;27;20194;-69
2022/10/27 02:20:57;;;;;;;4.43;4.10;;;13.80;99.90;;;;;;5114951;27;20206;-67
2022/10/27 02:23:23;;;;;;;4.57;3.57;;;13.80;99.90;;;;;;5107618;28;20601;-67
2022/10/27 02:25:56;;;;;;;4.43;3.80;;;13.80;99.90;;;;;;5110789;28;20202;-67
2022/10/27 02:28:28;;;;;;;4.83;3.73;;;13.80;99.90;;;;;;5122664;28;20217;-67
2022/10/27 02:30:59;;;;;;;4.97;4.23;;;13.80;99.90;;;;;;5127977;27;20198;-67
2022/10/27 02:33:30;;;;;;;6.67;4.70;;;13.80;99.90;;;;;;5126480;27;20242;-67
2022/10/27 02:35:57;;;;;;;7.63;4.20;;;13.80;99.90;;;;;;5127830;27;20193;-67
2022/10/27 02:38:24;;;;;;;4.43;4.03;;;13.80;99.90;;;;;;5127826;27;20205;-67
2022/10/27 02:40:51;;;;;;;8.67;4.33;;;13.90;99.90;;;;;;5127549;27;20283;-67
2022/10/27 02:43:17;;;;;;;6.13;3.63;;;13.90;99.90;;;;;;5127826;27;20220;-67
2022/10/27 02:45:44;;;;;;;4.67;3.87;;;13.90;99.90;;;;;;5113221;27;20204;-67
2022/10/27 02:48:11;;;;;;;5.63;4.13;;;13.90;99.90;;;;;;5110985;28;20237;-67
2022/10/27 02:50:39;;;;;;;6.10;4.67;;;13.90;99.90;;;;;;5111125;28;20592;-67
2022/10/27 02:53:06;;;;;;;6.27;3.67;;;13.80;99.90;;;;;;5110966;28;20234;-67
2022/10/27 02:55:33;;;;;;;5.07;4.57;;;13.80;99.90;;;;;;5110703;28;20634;-67
2022/10/27 02:57:59;;;;;;;5.40;4.50;;;13.70;99.90;;;;;;5110527;28;20214;-67
2022/10/27 03:00:26;;;;;;;4.60;3.90;;;13.70;99.90;;;;;;5110801;28;20194;-67
2022/10/27 03:02:53;;;;;;;4.63;4.23;;;13.70;99.90;;;;;;5128102;27;20229;-67
2022/10/27 03:05:19;;;;;;;4.87;4.40;;;13.80;99.90;;;;;;5131420;27;20217;-67
2022/10/27 03:07:47;;;;;;;6.60;4.47;;;13.80;99.90;;;;;;5131127;27;20318;-67
2022/10/27 03:10:14;;;;;;;4.43;4.03;;;13.80;99.90;;;;;;5130733;27;20216;-67
2022/10/27 03:12:41;;;;;;;6.73;4.40;;;13.80;99.90;;;;;;5130762;27;20671;-67
2022/10/27 03:15:09;;;;;;;4.70;4.30;;;13.80;99.90;;;;;;5131345;27;20205;-67
2022/10/27 03:17:35;;;;;;;9.07;4.47;;;13.80;99.90;;;;;;5130533;27;20664;-67
2022/10/27 03:20:02;;;;;;;5.97;4.50;;;13.80;99.90;;;;;;5124708;27;20210;-67
2022/10/27 03:22:29;;;;;;;6.17;4.33;;;13.80;99.90;;;;;;5115122;27;20220;-67
2022/10/27 03:24:57;;;;;;;4.80;4.30;;;13.90;99.90;;;;;;5110140;28;20209;-67
2022/10/27 03:27:24;;;;;;;4.57;4.17;;;13.80;99.90;;;;;;5110469;27;20248;-68
2022/10/27 03:29:50;;;;;;;7.13;4.50;;;13.80;99.90;;;;;;5119719;27;20212;-67
2022/10/27 03:32:17;;;;;;;7.73;4.83;;;13.80;99.90;;;;;;5130337;27;20216;-67
2022/10/27 03:34:44;;;;;;;5.40;4.70;;;13.70;99.90;;;;;;5130672;27;20209;-68
2022/10/27 03:37:10;;;;;;;4.67;4.27;;;13.70;99.90;;;;;;5130697;27;20204;-67
2022/10/27 03:39:37;;;;;;;7.77;5.17;;;13.70;99.90;;;;;;5130281;27;20202;-67
2022/10/27 03:42:05;;;;;;;5.53;4.57;;;13.60;99.90;;;;;;5111911;27;20660;-68
2022/10/27 03:44:32;;;;;;;4.77;4.37;;;13.70;99.90;;;;;;5110200;28;20225;-67
2022/10/27 03:46:59;;;;;;;7.43;4.80;;;13.60;99.90;;;;;;5110044;28;20252;-68
2022/10/27 03:49:25;;;;;;;7.47;4.37;;;13.70;99.90;;;;;;5109779;28;20202;-68
2022/10/27 03:51:52;;;;;;;5.77;4.73;;;13.70;99.90;;;;;;5111225;27;20679;-67
2022/10/27 03:54:19;;;;;;;9.53;5.00;;;13.70;99.90;;;;;;5130244;27;20216;-68
2022/10/27 03:56:46;;;;;;;4.90;4.40;;;13.60;99.90;;;;;;5129437;27;20668;-67
2022/10/27 03:59:14;;;;;;;5.40;4.90;;;13.60;99.90;;;;;;5130467;27;20197;-67
2022/10/27 04:01:41;;;;;;;8.43;5.30;;;13.70;99.90;;;;;;5130204;27;20229;-68
2022/10/27 04:04:10;;;;;;;5.27;4.73;;;13.70;99.90;;;;;;5130327;27;20197;-67
2022/10/27 04:06:37;;;;;;;5.43;4.87;;;13.70;99.90;;;;;;5130145;27;20197;-68
2022/10/27 04:09:04;;;;;;;6.03;4.67;;;13.60;99.90;;;;;;5129527;27;20208;-67
2022/10/27 04:11:30;;;;;;;7.80;5.10;;;13.60;99.90;;;;;;5129795;27;20208;-67
2022/10/27 04:13:57;;;;;;;9.33;5.30;;;13.60;99.90;;;;;;5129991;27;20201;-67
2022/10/27 04:16:25;;;;;;;9.70;5.57;;;13.50;99.90;;;;;;5129732;27;20663;-67
2022/10/27 04:18:52;;;;;;;7.60;5.43;;;13.50;99.90;;;;;;5113583;27;20210;-67
2022/10/27 04:21:19;;;;;;;6.17;5.00;;;13.50;99.90;;;;;;5126066;27;20202;-67
2022/10/27 04:23:46;;;;;;;5.93;5.30;;;13.50;99.90;;;;;;5129320;27;20217;-68
2022/10/27 04:26:13;;;;;;;6.07;4.50;;;13.50;99.90;;;;;;5126594;27;20208;-67
2022/10/27 04:28:39;;;;;;;5.80;4.30;;;13.60;99.90;;;;;;5129606;27;20228;-67
2022/10/27 04:31:06;;;;;;;7.87;4.93;;;13.70;99.90;;;;;;5129488;27;20212;-67
2022/10/27 04:33:34;;;;;;;4.50;4.20;;;13.60;99.90;;;;;;5129721;27;20209;-67
2022/10/27 04:36:01;;;;;;;5.40;4.80;;;13.60;99.90;;;;;;5129308;27;20568;-68
2022/10/27 04:38:27;;;;;;;7.77;4.73;;;13.60;99.90;;;;;;5129410;27;20205;-67
2022/10/27 04:40:54;;;;;;;4.90;4.40;;;13.60;99.90;;;;;;5129094;27;20568;-67
2022/10/27 04:43:21;;;;;;;6.43;4.57;;;13.60;99.90;;;;;;5129427;27;20194;-68
2022/10/27 04:45:47;;;;;;;5.57;4.43;;;13.60;99.90;;;;;;5128762;27;20676;-68
2022/10/27 04:48:14;;;;;;;6.30;4.47;;;13.60;99.90;;;;;;5129410;27;20236;-67
2022/10/27 04:50:42;;;;;;;7.03;4.40;;;13.60;99.90;;;;;;5129233;27;20202;-67
2022/10/27 04:53:09;;;;;;;4.40;4.10;;;13.60;99.90;;;;;;5129108;27;20197;-67
2022/10/27 04:55:36;;;;;;;4.80;4.30;;;13.60;99.90;;;;;;5126913;27;20208;-67
2022/10/27 04:58:03;;;;;;;8.37;4.37;;;13.60;99.90;;;;;;5123932;27;20213;-68
2022/10/27 05:00:29;;;;;;;5.43;3.93;;;13.50;99.90;;;;;;5129427;27;20206;-68
2022/10/27 05:02:58;;;;;;;8.13;4.53;;;13.50;99.90;;;;;;5128565;27;20255;-67
2022/10/27 05:05:28;;;;;;;5.47;4.07;;;13.50;99.90;;;;;;5128860;27;20248;-67
2022/10/27 05:07:57;;;;;;;6.73;4.53;;;13.50;99.90;;;;;;5128601;27;20229;-68
2022/10/27 05:10:24;;;;;;;4.70;4.17;;;13.50;99.90;;;;;;5128649;27;20547;-67
2022/10/27 05:12:51;;;;;;;4.80;4.40;;;13.40;99.90;;;;;;5128817;27;20765;-67
2022/10/27 05:15:18;;;;;;;6.23;4.40;;;13.40;99.90;;;;;;5113703;27;20207;-67
2022/10/27 05:17:45;;;;;;;8.07;4.80;;;13.40;99.90;;;;;;5112531;27;20197;-67
2022/10/27 05:20:12;;;;;;;5.93;4.80;;;13.30;99.90;;;;;;5128918;27;20209;-67
2022/10/27 05:22:39;;;;;;;5.20;4.60;;;13.30;99.90;;;;;;5128500;27;20213;-68
2022/10/27 05:25:09;;;;;;;7.17;4.50;;;13.40;99.90;;;;;;5128692;27;20205;-67
2022/10/27 05:27:36;;;;;;;5.43;4.40;;;13.40;99.90;;;;;;5128515;27;20229;-68
2022/10/27 05:30:04;;;;;;;5.30;4.47;;;13.40;99.90;;;;;;5128751;27;20232;-67
2022/10/27 05:32:30;;;;;;;5.23;4.37;;;13.40;99.90;;;;;;5128465;27;20201;-68
2022/10/27 05:34:57;;;;;;;5.33;3.90;;;13.40;99.90;;;;;;5107859;28;20198;-67
2022/10/27 05:37:24;;;;;;;7.30;4.80;;;13.40;99.90;;;;;;5108222;28;20206;-67
2022/10/27 05:39:51;;;;;;;5.43;4.93;;;13.40;99.90;;;;;;5107406;28;20539;-67
2022/10/27 05:42:19;;;;;;;4.80;4.33;;;13.40;99.90;;;;;;5108171;28;20209;-67
2022/10/27 05:44:46;;;;;;;6.00;4.30;;;13.40;99.90;;;;;;5107832;28;20668;-67
2022/10/27 05:47:12;;;;;;;6.30;4.27;;;13.40;99.90;;;;;;5108071;28;20206;-68
2022/10/27 05:49:39;;;;;;;5.20;4.40;;;13.40;99.90;;;;;;5111475;28;20197;-68
2022/10/27 05:52:06;;;;;;;5.47;4.43;;;13.40;99.90;;;;;;5128273;27;20209;-67
2022/10/27 05:54:32;;;;;;;4.07;3.77;;;13.40;99.90;;;;;;5128060;27;20205;-67
2022/10/27 05:56:59;;;;;;;5.07;4.30;;;13.40;99.90;;;;;;5114097;27;20683;-67
2022/10/27 05:59:27;;;;;;;4.83;4.33;;;13.40;99.90;;;;;;5107812;28;20209;-67
2022/10/27 06:01:54;;;;;;;4.90;4.40;;;13.40;99.90;;;;;;5107759;28;20241;-68
2022/10/27 06:04:21;;;;;;;4.10;3.73;;;13.50;99.90;;;;;;5107890;28;20218;-68
2022/10/27 06:06:47;;;;;;;6.23;4.37;;;13.40;99.90;;;;;;5109879;28;20206;-67
2022/10/27 06:09:15;;;;;;;5.67;4.33;;;13.30;99.90;;;;;;5127762;27;20235;-68
2022/10/27 06:11:41;;;;;;;4.30;3.80;;;13.40;99.90;;;;;;5113213;27;20221;-68
2022/10/27 06:14:09;;;;;;;4.10;3.80;;;13.40;99.90;;;;;;5107740;28;20992;-68
2022/10/27 06:16:37;;;;;;;5.07;3.97;;;13.40;99.90;;;;;;5122935;28;20205;-68
2022/10/27 06:19:04;;;;;;;6.90;4.07;;;13.40;99.90;;;;;;5115038;27;20214;-68
2022/10/27 06:21:31;;;;;;;4.37;3.87;;;13.40;99.90;;;;;;5111738;28;20206;-68
2022/10/27 06:23:57;;;;;;;4.47;4.03;;;13.40;99.90;;;;;;5126582;27;20216;-68
2022/10/27 06:26:24;;;;;;;5.70;3.80;;;13.40;99.90;;;;;;5123142;27;20210;-68
2022/10/27 06:28:51;;;;;;;5.57;4.30;;;13.40;99.90;;;;;;5111502;28;20221;-68
2022/10/27 06:31:18;;;;;;;6.27;4.03;;;13.40;99.90;;;;;;5124693;27;20216;-68
2022/10/27 06:33:46;;;;;;;5.50;4.40;;;13.50;99.90;;;;;;5124333;27;20243;-68
2022/10/27 06:36:13;;;;;;;6.97;4.33;;;13.50;99.90;;;;;;5131862;27;20210;-68
2022/10/27 06:38:40;;;;;;;6.03;3.90;;;13.50;99.90;;;;;;5131622;27;20655;-68
2022/10/27 06:41:06;;;;;;;4.53;4.20;;;13.50;99.90;;;;;;5131427;27;20210;-68
2022/10/27 06:43:33;;;;;;;5.10;4.33;;;13.50;99.90;;;;;;5131178;27;20217;-68
2022/10/27 06:46:00;;;;;;;5.97;4.27;;;13.50;99.90;;;;;;5131350;27;20197;-68
2022/10/27 06:48:27;;;;;;;5.33;4.50;;;13.50;99.90;;;;;;5131292;27;20225;-68
2022/10/27 06:50:55;;;;;;;4.97;4.47;;;13.50;99.90;;;;;;5130724;27;20216;-68
2022/10/27 06:53:21;;;;;;;7.63;4.67;;;13.50;99.90;;;;;;5131374;27;20207;-68
2022/10/27 06:55:48;;;;;;;6.40;4.60;;;13.60;99.90;;;;;;5127293;27;20209;-68
2022/10/27 06:58:15;;;;;;;5.60;4.60;;;13.50;99.90;;;;;;5111028;28;20572;-68
2022/10/27 07:00:41;;;;;;;7.70;4.87;;;13.50;99.90;;;;;;5118954;27;20202;-68
2022/10/27 07:03:09;;;;;;;4.70;4.37;;;13.50;99.90;;;;;;5129402;27;20926;-68
2022/10/27 07:05:35;;;;;;;8.30;5.03;;;13.60;99.90;;;;;;5129933;27;20630;-68
2022/10/27 07:08:04;;;;;;;6.50;4.90;;;13.60;99.90;;;;;;5126873;27;20233;-68
2022/10/27 07:10:30;;;;;;;5.33;4.77;;;13.60;99.90;;;;;;5130997;27;20209;-68
2022/10/27 07:12:59;;;;;;;6.37;4.70;;;13.70;99.90;;;;;;5131113;27;20198;-68
2022/10/27 07:15:27;;;;;;;5.30;4.90;;;13.70;99.90;;;;;;5130607;27;20201;-68
2022/10/27 07:17:58;;;;;;;5.07;4.43;;;13.70;99.90;;;;;;5130885;27;20209;-68
2022/10/27 07:20:25;;;;;;;5.93;4.20;;;13.80;99.90;;;;;;5131075;27;20194;-68
2022/10/27 07:22:52;;;;;;;4.77;4.27;;;13.80;99.90;;;;;;5130782;27;20249;-68
2022/10/27 07:25:20;;;;;;;5.33;4.30;;;13.90;99.90;;;;;;5130616;27;20217;-68
2022/10/27 07:27:52;;;;;;;5.20;4.27;;;13.90;99.90;;;;;;5109836;28;20665;-68
2022/10/27 07:30:20;;;;;;;6.27;3.97;;;14.00;99.90;;;;;;5122295;27;20189;-68
2022/10/27 07:32:46;;;;;;;5.97;3.70;;;14.00;99.90;;;;;;5121084;27;20198;-68
2022/10/27 07:35:13;;;;;;;4.23;3.83;;;14.10;99.90;;;;;;5110181;28;20210;-68
2022/10/27 07:37:43;;;;;;;6.03;4.17;;;14.20;99.90;;;;;;5110050;27;20210;-68
2022/10/27 07:40:11;;;;;;;6.40;4.33;;;14.30;99.90;;;;;;5110347;28;20265;-68
2022/10/27 07:42:44;;;;;;;6.80;4.23;;;14.30;99.90;;;;;;5109921;28;20263;-68
2022/10/27 07:45:11;;;;;;;4.73;4.07;;;14.40;99.90;;;;;;5109942;28;20225;-68
2022/10/27 07:47:42;;;;;;;5.07;4.17;;;14.50;99.90;;;;;;5126093;27;20201;-68
2022/10/27 07:50:09;;;;;;;5.07;4.43;;;14.50;99.90;;;;;;5130480;27;20205;-68
2022/10/27 07:52:41;;;;;;;5.03;4.43;;;14.50;99.90;;;;;;5130381;27;20210;-68
2022/10/27 07:55:09;;;;;;;7.27;4.30;;;14.50;99.90;;;;;;5129895;27;20235;-68
2022/10/27 07:57:36;;;;;;;6.30;4.10;;;14.50;99.90;;;;;;5129752;27;20209;-68
2022/10/27 08:00:04;;;;;;;6.63;4.10;;;14.60;99.90;;;;;;5130203;27;20205;-68
2022/10/27 08:02:31;;;;;;;7.60;4.53;;;14.60;99.90;;;;;;5129577;27;20382;-68
2022/10/27 08:04:58;;;;;;;8.03;4.47;;;14.70;99.90;;;;;;5130297;27;20232;-68
2022/10/27 08:07:24;;;;;;;4.67;4.13;;;14.70;99.90;;;;;;5129546;27;20544;-68
2022/10/27 08:09:51;;;;;;;6.23;4.30;;;14.80;99.90;;;;;;5129185;27;20690;-68
2022/10/27 08:12:18;;;;;;;4.60;4.20;;;14.80;99.90;;;;;;5128764;27;20684;-68
2022/10/27 08:14:45;;;;;;;8.47;4.40;;;14.80;99.90;;;;;;5129815;27;20205;-68
2022/10/27 08:17:13;;;;;;;5.07;4.20;;;14.80;99.90;;;;;;5130090;27;20207;-68
2022/10/27 08:19:40;;;;;;;5.00;4.13;;;14.80;99.90;;;;;;5127799;27;20302;-68
2022/10/27 08:22:07;;;;;;;8.37;4.17;;;14.80;99.90;;;;;;5130095;27;20202;-68
2022/10/27 08:24:34;;;;;;;8.10;5.37;;;14.80;99.90;;;;;;5129308;27;20236;-68
2022/10/27 08:27:01;;;;;;;6.43;4.70;;;14.80;99.90;;;;;;5129845;27;20298;-68
2022/10/27 08:29:28;;;;;;;6.03;3.97;;;14.80;99.90;;;;;;5129720;27;20229;-68
2022/10/27 08:31:55;;;;;;;6.13;4.73;;;14.90;99.90;;;;;;5129103;27;20202;-68
2022/10/27 08:34:23;;;;;;;5.13;4.63;;;14.90;99.90;;;;;;5129407;27;20208;-68
2022/10/27 08:36:49;;;;;;;5.53;4.50;;;15.00;99.90;;;;;;5129065;27;20575;-68
2022/10/27 08:39:16;;;;;;;4.57;4.17;;;15.00;99.90;;;;;;5128972;27;20664;-68
2022/10/27 08:41:55;;;;;;;4.60;4.20;;;15.10;99.90;;;;;;5128643;27;20220;-68
2022/10/27 08:44:26;;;;;;;6.07;4.00;;;15.10;99.90;;;;;;5128993;27;20197;-68
2022/10/27 08:46:56;;;;;;;5.67;4.23;;;15.20;99.90;;;;;;5129185;27;20502;-68
2022/10/27 08:49:34;;;;;;;4.30;3.90;;;15.30;99.90;;;;;;5129144;27;20233;-68
2022/10/27 08:52:09;;;;;;;7.30;4.40;;;15.30;99.90;;;;;;5128568;27;20671;-68
2022/10/27 08:54:36;;;;;;;6.70;4.30;;;15.40;99.90;;;;;;5128800;27;20193;-68
2022/10/27 08:57:05;;;;;;;5.90;4.27;;;15.40;99.90;;;;;;5129333;27;20594;-68
2022/10/27 08:59:33;;;;;;;4.77;4.17;;;15.50;99.90;;;;;;5121515;27;20723;-68
2022/10/27 09:02:18;;;;;;;4.20;3.77;;;15.50;99.90;;;;;;5127599;27;20225;-68
2022/10/27 09:04:58;;;;;;;4.90;4.40;;;15.60;99.90;;;;;;5128591;27;20240;-68
2022/10/27 09:07:36;;;;;;;7.20;3.80;;;15.60;99.90;;;;;;5118600;27;20202;-68
2022/10/27 09:10:06;;;;;;;5.30;3.70;;;15.70;99.90;;;;;;5108208;28;20785;-68
2022/10/27 09:12:57;;;;;;;4.03;3.63;;;15.80;99.90;;;;;;5108236;28;20201;-68
2022/10/27 09:15:38;;;;;;;5.47;3.50;;;15.80;99.90;;;;;;5112788;27;20201;-68
2022/10/27 09:18:12;;;;;;;4.03;3.57;;;15.90;99.90;;;;;;5107948;28;20652;-68
2022/10/27 09:20:44;;;;;;;4.17;3.87;;;16.00;99.90;;;;;;5116369;27;20204;-68
2022/10/27 09:23:14;;;;;;;4.13;3.70;;;16.00;99.90;;;;;;5107638;28;20187;-68
2022/10/27 09:25:41;;;;;;;3.77;3.57;;;16.10;99.90;;;;;;5107466;28;20293;-68
2022/10/27 09:28:16;;;;;;;5.43;3.47;;;16.20;99.90;;;;;;5108228;28;20206;-68
2022/10/27 09:30:45;;;;;;;4.07;3.70;;;16.20;99.90;;;;;;5107445;28;20688;-68
2022/10/27 09:33:16;;;;;;;11.23;3.83;;;16.30;99.90;;;;;;5107488;28;20213;-68
2022/10/27 09:35:44;;;;;;;6.77;3.80;;;16.30;99.90;;;;;;5127227;27;20193;-68
2022/10/27 09:38:14;;;;;;;4.97;3.47;;;16.40;99.90;;;;;;5128321;27;20208;-68
2022/10/27 09:40:41;;;;;;;4.57;3.33;;;16.50;99.90;;;;;;5127654;27;20292;-68
2022/10/27 09:43:10;;;;;;;4.53;3.60;;;16.50;99.90;;;;;;5127599;27;20671;-68
2022/10/27 09:45:37;;;;;;;5.63;3.47;;;16.60;99.90;;;;;;5127479;27;20202;-68
2022/10/27 09:48:06;;;;;;;6.10;3.37;;;16.60;99.90;;;;;;5128227;27;20208;-68
2022/10/27 09:50:39;;;;;;;5.17;3.20;;;16.70;99.90;;;;;;5127769;27;20236;-68
2022/10/27 09:53:42;;;;;;;5.60;3.10;;;16.70;99.90;;;;;;5127846;27;20280;-68
2022/10/27 09:56:12;;;;;;;3.60;3.10;;;16.70;99.90;;;;;;5127978;27;20208;-68
2022/10/27 09:58:47;;;;;;;3.20;2.90;;;16.80;99.90;;;;;;5132711;27;20210;-68
2022/10/27 10:01:14;;;;;;;4.53;3.03;;;16.80;99.90;;;;;;5133039;27;20279;-68
2022/10/27 10:03:54;;;;;;;8.13;2.77;;;16.90;99.90;;;;;;5131963;27;20240;-68
2022/10/27 10:06:31;;;;;;;3.93;2.93;;;17.00;99.90;;;;;;5132616;27;20615;-68
2022/10/27 10:09:16;;;;;;;3.97;2.60;;;17.00;99.90;;;;;;5132346;27;20217;-68
2022/10/27 10:11:43;;;;;;;3.60;2.70;;;17.10;99.90;;;;;;5132375;27;20741;-68
2022/10/27 10:14:20;;;;;;;5.37;2.80;;;17.20;99.90;;;;;;5132197;27;20197;-68
2022/10/27 10:16:47;;;;;;;5.00;3.10;;;17.20;99.90;;;;;;5132247;27;20193;-68
2022/10/27 10:19:17;;;;;;;3.53;2.77;;;17.30;99.90;;;;;;5132292;27;20209;-68
2022/10/27 10:21:47;;;;;;;6.07;2.97;;;17.30;99.90;;;;;;5111653;28;20209;-68
2022/10/27 10:24:20;;;;;;;3.33;2.33;;;17.40;99.90;;;;;;5111528;28;20198;-68
2022/10/27 10:26:49;;;;;;;4.13;2.53;;;17.50;99.90;;;;;;5123547;27;20197;-68
2022/10/27 10:29:26;;;;;;;4.63;2.83;;;17.50;99.90;;;;;;5131980;27;20594;-68
2022/10/27 10:32:06;;;;;;;6.23;2.70;;;17.50;99.90;;;;;;5130915;27;20266;-68
2022/10/27 10:34:33;;;;;;;3.10;2.47;;;17.50;99.90;;;;;;5111578;28;20212;-68
2022/10/27 10:37:01;;;;;;;4.20;2.67;;;17.60;99.90;;;;;;5111163;28;20243;-68
2022/10/27 10:39:32;;;;;;;5.50;3.10;;;17.70;99.90;;;;;;5110790;28;20377;-68
2022/10/27 10:42:15;;;;;;;2.93;2.43;;;17.80;99.90;;;;;;5111533;28;20222;-68
2022/10/27 10:44:42;;;;;;;3.40;2.50;;;17.90;99.90;;;;;;5116805;27;20510;-68
2022/10/27 10:47:22;;;;;;;4.33;2.33;;;18.00;99.90;;;;;;5131728;27;20221;-68
2022/10/27 10:49:52;;;;;;;4.03;2.60;;;18.20;99.90;;;;;;5131107;27;20835;-68
2022/10/27 10:52:22;;;;;;;5.97;2.83;;;18.30;99.90;;;;;;5121688;27;20280;-68
2022/10/27 10:54:50;;;;;;;3.00;2.63;;;18.40;99.90;;;;;;5110565;28;20213;-68
2022/10/27 10:57:25;;;;;;;6.20;2.83;;;18.60;99.90;;;;;;5110919;27;20236;-68
2022/10/27 10:59:54;;;;;;;3.17;2.33;;;18.60;99.90;;;;;;5120601;27;20201;-68
2022/10/27 11:02:27;;;;;;;3.50;2.33;;;18.70;99.90;;;;;;5130687;27;20704;-69
2022/10/27 11:04:54;;;;;;;2.37;2.17;;;18.80;99.90;;;;;;5130883;27;20244;-68
2022/10/27 11:07:25;;;;;;;2.57;2.37;;;18.90;99.90;;;;;;5131047;27;20209;-68
2022/10/27 11:09:59;;;;;;;4.73;2.60;;;19.00;99.90;;;;;;5130422;27;20221;-69
2022/10/27 11:12:31;;;;;;;2.97;2.63;;;19.00;99.90;;;;;;5110652;28;20304;-68
2022/10/27 11:15:03;;;;;;;3.17;2.37;;;19.10;99.90;;;;;;5110669;28;20197;-68
2022/10/27 11:17:32;;;;;;;4.83;2.27;;;19.30;99.90;;;;;;5110403;27;20231;-68
2022/10/27 11:20:00;;;;;;;3.07;2.10;;;19.20;99.90;;;;;;5130418;27;20213;-68
2022/10/27 11:22:27;;;;;;;3.10;2.53;;;19.20;99.90;;;;;;5130813;27;20212;-68
2022/10/27 11:25:00;;;;;;;3.40;2.50;;;19.20;99.90;;;;;;5130346;27;20737;-68
2022/10/27 11:27:32;;;;;;;6.57;2.70;;;19.20;99.90;;;;;;5113258;27;20222;-68
2022/10/27 11:30:03;;;;;;;4.67;2.17;;;19.30;99.90;;;;;;5110402;28;20233;-68
2022/10/27 11:32:34;;;;;;;2.60;2.40;;;19.40;99.90;;;;;;5110198;28;20558;-68
2022/10/27 11:35:10;;;;;;;2.97;2.10;;;19.40;99.90;;;;;;5110260;28;20194;-68
2022/10/27 11:37:43;;;;;;;2.87;2.00;;;19.20;99.90;;;;;;5110134;28;20194;-68
2022/10/27 11:40:18;;;;;;;3.20;2.57;;;19.20;99.90;;;;;;5109855;28;20595;-68
2022/10/27 11:42:52;;;;;;;3.63;2.40;;;19.20;99.90;;;;;;5109910;28;20294;-68
2022/10/27 11:45:23;;;;;;;3.30;2.53;;;19.20;99.90;;;;;;5112348;27;20197;-68
2022/10/27 11:47:55;;;;;;;4.50;2.20;;;19.20;99.90;;;;;;5127221;27;20198;-68
2022/10/27 11:50:27;;;;;;;2.93;2.23;;;19.20;99.90;;;;;;5109763;28;20218;-68
2022/10/27 11:52:56;;;;;;;4.23;2.00;;;19.10;99.90;;;;;;5117256;27;20196;-68
2022/10/27 11:55:32;;;;;;;3.47;2.37;;;19.10;99.90;;;;;;5126346;27;20205;-68
2022/10/27 11:58:06;;;;;;;4.10;2.37;;;19.10;99.90;;;;;;5110023;28;20201;-68
2022/10/27 12:00:37;;;;;;;4.40;2.50;;;19.20;99.90;;;;;;5109770;27;20202;-68
2022/10/27 12:03:39;;;;;;;2.93;2.00;;;19.30;99.90;;;;;;5109346;27;20234;-68
2022/10/27 12:06:12;;;;;;;4.17;2.47;;;19.50;99.90;;;;;;5109380;28;20293;-68
2022/10/27 12:08:48;;;;;;;4.70;2.40;;;19.80;99.90;;;;;;5109500;28;20197;-68
2022/10/27 12:11:31;;;;;;;3.33;2.40;;;19.90;99.90;;;;;;5109237;28;20225;-68
2022/10/27 12:14:04;;;;;;;3.40;2.17;;;20.10;99.90;;;;;;5109010;28;20645;-68
2022/10/27 12:16:37;;;;;;;3.58;2.40;;;20.30;99.90;;;;;;5108672;28;20197;-68
2022/10/27 12:19:10;;;;;;;2.35;2.00;;;20.30;99.90;;;;;;5109542;28;20221;-68
2022/10/27 12:21:41;;;;;;;5.15;2.38;;;20.50;99.90;;;;;;5128395;27;20204;-68
2022/10/27 12:24:13;;;;;;;3.13;2.60;;;20.60;99.90;;;;;;5129621;27;20220;-68
2022/10/27 12:26:44;;;;;;;10.25;2.58;;;20.70;99.90;;;;;;5111895;27;20201;-68
2022/10/27 12:29:12;;;;;;;2.90;2.45;;;20.80;99.90;;;;;;5109209;28;20213;-68
2022/10/27 12:31:46;;;;;;;7.90;2.95;;;20.90;99.90;;;;;;5108926;28;20213;-68
2022/10/27 12:34:16;;;;;;;4.60;2.70;;;20.90;99.90;;;;;;5108995;28;20202;-68
2022/10/27 12:36:49;;;;;;;4.88;2.90;;;20.90;99.90;;;;;;5108832;28;20259;-68
2022/10/27 12:39:25;;;;;;;3.65;2.50;;;21.00;99.90;;;;;;5112450;27;20198;-68
2022/10/27 12:42:05;;;;;;;2.88;2.60;;;21.10;99.90;;;;;;5129283;27;20193;-68
2022/10/27 12:44:41;;;;;;;6.30;2.67;;;21.00;99.90;;;;;;5129407;27;20193;-68
2022/10/27 12:47:24;;;;;;;3.88;2.47;;;21.10;99.90;;;;;;5129721;27;20196;-68
2022/10/27 12:50:00;;;;;;;3.22;2.17;;;21.00;99.90;;;;;;5129009;27;20213;-68
2022/10/27 12:52:28;;;;;;;3.47;2.63;;;21.10;99.90;;;;;;5128801;27;20205;-68
2022/10/27 12:55:26;;;;;;;3.20;2.10;;;21.10;99.90;;;;;;5128483;27;20197;-68
2022/10/27 12:58:01;;;;;;;6.65;2.45;;;21.10;99.90;;;;;;5108114;28;20657;-68
2022/10/27 13:00:31;;;;;;;5.90;2.67;;;21.10;99.90;;;;;;5108512;28;20203;-68